createdAt,value
2017-08-19T00:01:34.246Z,56.10
2017-08-19T00:04:02.348Z,56.70
2017-08-19T00:06:30.424Z,56.10
2017-08-19T00:08:58.488Z,55.90
2017-08-19T00:11:26.560Z,56.00
2017-08-19T00:13:54.632Z,55.80
2017-08-19T00:16:22.709Z,55.60
2017-08-19T00:18:50.789Z,56.10
2017-08-19T00:21:18.859Z,56.60
2017-08-19T00:23:46.927Z,56.70
2017-08-19T00:26:15.019Z,56.60
2017-08-19T00:28:43.092Z,56.70
2017-08-19T00:31:11.188Z,56.60
2017-08-19T00:33:39.260Z,57.20
2017-08-19T00:36:07.336Z,59.00
2017-08-19T00:38:35.413Z,57.90
2017-08-19T00:41:03.476Z,58.50
2017-08-19T00:43:31.552Z,57.80
2017-08-19T00:45:59.619Z,58.20
2017-08-19T00:48:28.469Z,58.10
2017-08-19T00:50:56.562Z,58.00
2017-08-19T00:53:24.636Z,57.80
2017-08-19T00:55:52.696Z,57.20
2017-08-19T00:58:20.768Z,56.60
2017-08-19T01:00:48.840Z,57.50
2017-08-19T01:03:16.910Z,57.60
2017-08-19T01:05:44.985Z,57.10
2017-08-19T01:08:13.068Z,57.90
2017-08-19T01:10:41.141Z,58.30
2017-08-19T01:13:09.213Z,58.70
2017-08-19T01:15:37.291Z,59.00
2017-08-19T01:18:05.359Z,59.30
2017-08-19T01:20:33.442Z,59.60
2017-08-19T01:23:01.513Z,59.50
2017-08-19T01:25:47.473Z,59.50
2017-08-19T01:28:15.551Z,59.50
2017-08-19T01:30:43.627Z,59.20
2017-08-19T01:33:11.713Z,59.50
2017-08-19T01:35:39.785Z,59.20
2017-08-19T01:38:07.869Z,59.60
2017-08-19T01:40:35.949Z,59.50
2017-08-19T01:43:04.779Z,59.30
2017-08-19T01:45:32.851Z,59.30
2017-08-19T01:48:00.915Z,59.60
2017-08-19T01:50:28.983Z,59.40
2017-08-19T01:52:57.056Z,60.00
2017-08-19T01:55:25.133Z,60.70
2017-08-19T01:57:53.203Z,60.80
2017-08-19T02:00:21.304Z,60.90
2017-08-19T02:02:49.376Z,61.00
2017-08-19T02:05:17.449Z,61.70
2017-08-19T02:07:45.538Z,61.50
2017-08-19T02:10:13.603Z,61.50
2017-08-19T02:12:41.679Z,61.10
2017-08-19T02:15:09.895Z,61.30
2017-08-19T02:17:37.969Z,60.50
2017-08-19T02:20:06.040Z,60.10
2017-08-19T02:22:34.132Z,60.40
2017-08-19T02:25:02.212Z,59.50
2017-08-19T02:27:30.303Z,59.40
2017-08-19T02:29:58.388Z,59.80
2017-08-19T02:32:26.472Z,59.60
2017-08-19T02:34:55.333Z,60.30
2017-08-19T02:37:23.428Z,60.10
2017-08-19T02:39:51.510Z,60.30
2017-08-19T02:42:19.573Z,60.40
2017-08-19T02:44:47.674Z,60.90
2017-08-19T02:47:15.751Z,61.80
2017-08-19T02:49:43.832Z,61.90
2017-08-19T02:52:11.901Z,62.30
2017-08-19T02:54:39.992Z,62.90
2017-08-19T02:57:08.064Z,63.80
2017-08-19T02:59:36.135Z,63.20
2017-08-19T03:02:04.212Z,63.80
2017-08-19T03:04:32.307Z,64.20
2017-08-19T03:07:00.391Z,64.10
2017-08-19T03:09:28.478Z,64.70
2017-08-19T03:11:56.548Z,64.20
2017-08-19T03:14:24.613Z,64.20
2017-08-19T03:16:52.721Z,64.30
2017-08-19T03:19:20.774Z,63.80
2017-08-19T03:21:48.866Z,64.30
2017-08-19T03:24:17.936Z,63.60
2017-08-19T03:26:46.016Z,63.40
2017-08-19T03:29:14.089Z,63.70
2017-08-19T03:31:42.938Z,64.30
2017-08-19T03:34:11.471Z,64.30
2017-08-19T03:36:39.547Z,64.90
2017-08-19T03:39:07.613Z,64.20
2017-08-19T03:41:36.476Z,63.60
2017-08-19T03:44:04.547Z,63.50
2017-08-19T03:46:32.616Z,64.40
2017-08-19T03:49:00.691Z,63.60
2017-08-19T03:51:28.768Z,63.40
2017-08-19T03:53:56.844Z,63.60
2017-08-19T03:56:24.939Z,64.20
2017-08-19T03:58:53.785Z,64.20
2017-08-19T04:01:21.861Z,64.10
2017-08-19T04:03:49.948Z,64.10
2017-08-19T04:06:18.025Z,64.10
2017-08-19T04:08:46.091Z,64.10
2017-08-19T04:11:14.165Z,64.10
2017-08-19T04:13:42.244Z,64.10
2017-08-19T04:16:10.320Z,64.20
2017-08-19T04:18:38.392Z,64.80
2017-08-19T04:21:06.467Z,64.10
2017-08-19T04:23:34.537Z,63.90
2017-08-19T04:26:02.614Z,64.10
2017-08-19T04:28:31.456Z,64.20
2017-08-19T04:30:59.608Z,64.20
2017-08-19T04:33:27.672Z,64.40
2017-08-19T04:35:55.769Z,64.20
2017-08-19T04:38:23.837Z,64.10
2017-08-19T04:40:51.911Z,64.10
2017-08-19T04:43:19.992Z,64.20
2017-08-19T04:45:48.059Z,64.10
2017-08-19T04:48:16.140Z,64.10
2017-08-19T04:50:44.211Z,64.10
2017-08-19T04:53:12.295Z,64.20
2017-08-19T04:55:40.407Z,64.20
2017-08-19T04:58:09.281Z,63.90
2017-08-19T05:00:37.378Z,63.90
2017-08-19T05:03:05.452Z,64.40
2017-08-19T05:05:34.284Z,62.70
2017-08-19T05:08:02.368Z,62.70
2017-08-19T05:10:30.444Z,62.90
2017-08-19T05:12:58.531Z,62.30
2017-08-19T05:15:26.601Z,63.10
2017-08-19T05:17:54.672Z,63.00
2017-08-19T05:20:22.744Z,62.10
2017-08-19T05:22:50.828Z,61.70
2017-08-19T05:25:18.899Z,60.80
2017-08-19T05:27:46.958Z,61.40
2017-08-19T05:30:15.047Z,60.00
2017-08-19T05:32:43.120Z,60.20
2017-08-19T05:35:11.208Z,59.40
2017-08-19T05:37:39.369Z,59.80
2017-08-19T05:40:07.447Z,59.70
2017-08-19T05:42:35.539Z,60.10
2017-08-19T05:45:03.638Z,59.50
2017-08-19T05:47:31.709Z,59.30
2017-08-19T05:49:59.878Z,58.90
2017-08-19T05:52:27.991Z,59.20
2017-08-19T05:54:56.075Z,59.00
2017-08-19T05:57:24.164Z,58.60
2017-08-19T05:59:52.223Z,57.90
2017-08-19T06:02:20.304Z,58.10
2017-08-19T06:04:48.370Z,58.60
2017-08-19T06:07:16.443Z,58.50
2017-08-19T06:09:45.281Z,58.50
2017-08-19T06:12:13.361Z,58.50
2017-08-19T06:14:41.429Z,58.10
2017-08-19T06:17:09.516Z,57.50
2017-08-19T06:19:37.610Z,57.20
2017-08-19T06:22:06.491Z,57.90
2017-08-19T06:24:34.558Z,57.80
2017-08-19T06:27:02.637Z,57.40
2017-08-19T06:29:30.708Z,57.30
2017-08-19T06:31:58.781Z,56.80
2017-08-19T06:34:26.859Z,57.00
2017-08-19T06:36:54.932Z,55.90
2017-08-19T06:39:23.004Z,56.60
2017-08-19T06:41:51.080Z,56.50
2017-08-19T06:44:19.177Z,55.80
2017-08-19T06:46:48.013Z,55.80
2017-08-19T06:49:16.123Z,55.70
2017-08-19T06:51:44.196Z,54.60
2017-08-19T06:54:12.267Z,53.60
2017-08-19T06:56:40.339Z,53.60
2017-08-19T06:59:08.424Z,54.20
2017-08-19T07:01:36.495Z,54.30
2017-08-19T07:04:05.340Z,52.10
2017-08-19T07:06:33.418Z,52.10
2017-08-19T07:09:01.720Z,52.30
2017-08-19T07:11:29.825Z,51.60
2017-08-19T07:13:57.901Z,52.00
2017-08-19T07:16:25.979Z,51.70
2017-08-19T07:18:54.047Z,52.40
2017-08-19T07:21:22.137Z,53.30
2017-08-19T07:23:50.217Z,52.10
2017-08-19T07:26:18.299Z,51.70
2017-08-19T07:28:46.363Z,52.20
2017-08-19T07:31:14.437Z,52.20
2017-08-19T07:33:42.519Z,51.90
2017-08-19T07:36:10.804Z,52.70
2017-08-19T07:38:38.928Z,52.50
2017-08-19T07:41:07.022Z,52.10
2017-08-19T07:43:35.108Z,53.80
2017-08-19T07:46:03.184Z,51.20
2017-08-19T07:48:31.271Z,52.40
2017-08-19T07:50:59.340Z,51.90
2017-08-19T07:53:27.425Z,52.20
2017-08-19T07:55:55.498Z,50.60
2017-08-19T07:58:23.580Z,51.60
2017-08-19T08:00:51.865Z,49.50
2017-08-19T08:03:20.702Z,50.20
2017-08-19T08:05:48.785Z,49.70
2017-08-19T08:08:16.867Z,48.30
2017-08-19T08:10:44.956Z,47.60
2017-08-19T08:13:13.040Z,47.60
2017-08-19T08:15:41.160Z,44.60
2017-08-19T08:18:09.233Z,47.40
2017-08-19T08:20:37.329Z,45.70
2017-08-19T08:23:05.436Z,46.70
2017-08-19T08:25:34.312Z,46.10
2017-08-19T08:28:02.409Z,45.80
2017-08-19T08:30:30.555Z,45.70
2017-08-19T08:32:58.654Z,45.90
2017-08-19T08:35:26.779Z,45.80
2017-08-19T08:37:54.892Z,46.50
2017-08-19T08:40:23.772Z,47.70
2017-08-19T08:42:51.880Z,47.30
2017-08-19T08:45:19.981Z,47.40
2017-08-19T08:47:48.088Z,51.00
2017-08-19T08:50:16.953Z,42.90
2017-08-19T08:52:45.046Z,42.80
2017-08-19T08:55:13.167Z,43.90
2017-08-19T08:57:41.316Z,44.80
2017-08-19T09:00:09.453Z,43.00
2017-08-19T09:02:37.547Z,43.70
2017-08-19T09:05:06.687Z,41.80
2017-08-19T09:07:34.776Z,41.40
2017-08-19T09:10:02.912Z,42.40
2017-08-19T09:12:31.865Z,41.30
2017-08-19T09:15:00.890Z,41.60
2017-08-19T09:17:28.995Z,41.80
2017-08-19T09:19:57.171Z,39.00
2017-08-19T09:22:25.357Z,38.10
2017-08-19T09:24:54.428Z,38.30
2017-08-19T09:27:22.504Z,39.00
2017-08-19T09:29:50.628Z,39.30
2017-08-19T09:32:18.801Z,37.50
2017-08-19T09:34:46.902Z,37.20
2017-08-19T09:37:15.099Z,37.90
2017-08-19T09:39:43.213Z,37.30
2017-08-19T09:42:19.155Z,36.40
2017-08-19T09:44:47.257Z,36.00
2017-08-19T09:47:15.520Z,36.70
2017-08-19T09:49:43.689Z,35.70
2017-08-19T09:52:11.773Z,36.30
2017-08-19T09:54:39.883Z,36.10
2017-08-19T09:57:08.740Z,34.60
2017-08-19T09:59:36.810Z,34.60
2017-08-19T10:02:04.884Z,34.10
2017-08-19T10:04:32.955Z,33.50
2017-08-19T10:07:01.039Z,31.80
2017-08-19T10:09:48.507Z,30.90
2017-08-19T10:12:16.567Z,30.50
2017-08-19T10:14:44.635Z,31.40
2017-08-19T10:17:12.773Z,30.30
2017-08-19T10:19:40.842Z,31.10
2017-08-19T10:22:08.916Z,27.90
2017-08-19T10:24:37.091Z,28.30
2017-08-19T10:27:05.189Z,28.90
2017-08-19T10:29:33.259Z,29.40
2017-08-19T10:32:01.345Z,29.20
2017-08-19T10:34:29.446Z,30.00
2017-08-19T10:36:57.529Z,29.30
2017-08-19T10:39:25.616Z,29.40
2017-08-19T10:41:53.692Z,29.30
2017-08-19T10:44:21.796Z,28.40
2017-08-19T10:46:49.867Z,27.40
2017-08-19T10:49:17.944Z,27.40
2017-08-19T10:51:46.016Z,27.40
2017-08-19T10:54:14.094Z,27.20
2017-08-19T10:56:42.954Z,27.60
2017-08-19T10:59:11.023Z,27.60
2017-08-19T11:01:39.216Z,28.40
2017-08-19T11:04:07.288Z,26.80
2017-08-19T11:06:35.373Z,25.20
2017-08-19T11:09:03.444Z,26.70
2017-08-19T11:11:31.519Z,26.60
2017-08-19T11:14:00.364Z,27.40
2017-08-19T11:16:28.456Z,27.40
2017-08-19T11:18:56.523Z,28.30
2017-08-19T11:21:24.596Z,28.70
2017-08-19T11:23:52.675Z,29.50
2017-08-19T11:26:20.754Z,29.50
2017-08-19T11:28:48.832Z,29.10
2017-08-19T11:31:16.907Z,29.10
2017-08-19T11:33:44.987Z,30.20
2017-08-19T11:36:13.059Z,29.80
2017-08-19T11:38:41.140Z,30.50
2017-08-19T11:41:09.210Z,29.30
2017-08-19T11:43:38.067Z,29.30
2017-08-19T11:46:06.143Z,29.30
2017-08-19T11:48:34.268Z,29.40
2017-08-19T11:51:02.338Z,29.00
2017-08-19T11:53:30.417Z,29.00
2017-08-19T11:55:58.491Z,29.70
2017-08-19T11:58:26.588Z,26.90
2017-08-19T12:00:54.668Z,26.20
2017-08-19T12:03:22.740Z,26.60
2017-08-19T12:05:50.819Z,25.60
2017-08-19T12:08:18.892Z,26.10
2017-08-19T12:10:46.968Z,25.50
2017-08-19T12:13:15.052Z,25.60
2017-08-19T12:15:44.152Z,25.80
2017-08-19T12:18:12.220Z,25.30
2017-08-19T12:20:40.339Z,24.80
2017-08-19T12:23:08.448Z,24.20
2017-08-19T12:25:36.512Z,25.00
2017-08-19T12:28:04.596Z,25.10
2017-08-19T12:30:32.785Z,24.00
2017-08-19T12:33:00.864Z,24.20
2017-08-19T12:35:29.961Z,24.00
2017-08-19T12:37:58.043Z,24.80
2017-08-19T12:40:26.121Z,24.70
2017-08-19T12:42:54.992Z,24.00
2017-08-19T12:45:23.070Z,24.00
2017-08-19T12:47:51.146Z,23.90
2017-08-19T12:50:19.220Z,24.50
2017-08-19T12:52:47.307Z,23.80
2017-08-19T12:55:17.091Z,24.90
2017-08-19T12:57:45.152Z,24.90
2017-08-19T13:00:13.228Z,23.50
2017-08-19T13:02:41.403Z,24.20
2017-08-19T13:05:09.476Z,24.40
2017-08-19T13:07:37.543Z,24.50
2017-08-19T13:10:05.616Z,24.40
2017-08-19T13:12:33.683Z,22.90
2017-08-19T13:15:01.766Z,24.30
2017-08-19T13:17:29.832Z,24.20
2017-08-19T13:19:57.915Z,24.50
2017-08-19T13:22:26.003Z,24.40
2017-08-19T13:24:54.076Z,24.90
2017-08-19T13:27:22.148Z,24.20
2017-08-19T13:29:50.220Z,23.90
2017-08-19T13:32:18.291Z,22.40
2017-08-19T13:34:46.355Z,23.00
2017-08-19T13:37:14.436Z,22.00
2017-08-19T13:39:42.553Z,20.90
2017-08-19T13:42:10.639Z,20.70
2017-08-19T13:44:38.707Z,21.50
2017-08-19T13:47:06.786Z,23.30
2017-08-19T13:49:34.859Z,23.10
2017-08-19T13:52:02.949Z,22.40
2017-08-19T13:54:31.015Z,21.80
2017-08-19T13:56:59.095Z,21.80
2017-08-19T13:59:27.178Z,22.10
2017-08-19T14:01:55.251Z,22.40
2017-08-19T14:04:23.327Z,22.80
2017-08-19T14:06:51.395Z,22.20
2017-08-19T14:09:19.480Z,23.30
2017-08-19T14:11:47.543Z,23.70
2017-08-19T14:14:17.319Z,22.90
2017-08-19T14:16:46.632Z,23.70
2017-08-19T14:19:17.186Z,23.50
2017-08-19T14:21:45.957Z,21.70
2017-08-19T14:24:20.383Z,22.20
2017-08-19T14:26:50.704Z,21.80
2017-08-19T14:29:21.700Z,22.00
2017-08-19T14:31:51.143Z,22.20
2017-08-19T14:34:22.405Z,23.10
2017-08-19T14:36:51.761Z,22.10
2017-08-19T14:39:21.502Z,21.80
2017-08-19T14:41:50.431Z,21.70
2017-08-19T14:44:25.361Z,21.70
2017-08-19T14:46:53.611Z,20.80
2017-08-19T14:49:23.557Z,21.30
2017-08-19T14:51:52.411Z,21.20
2017-08-19T14:54:20.488Z,21.20
2017-08-19T14:56:48.584Z,21.20
2017-08-19T14:59:17.383Z,20.70
2017-08-19T15:01:46.296Z,20.80
2017-08-19T15:04:14.459Z,20.70
2017-08-19T15:06:42.562Z,20.70
2017-08-19T15:09:10.644Z,21.70
2017-08-19T15:11:38.721Z,20.00
2017-08-19T15:14:06.796Z,19.60
2017-08-19T15:16:34.884Z,19.30
2017-08-19T15:19:02.951Z,20.90
2017-08-19T15:21:31.018Z,19.50
2017-08-19T15:23:59.096Z,17.60
2017-08-19T15:26:27.285Z,17.50
2017-08-19T15:28:55.355Z,18.60
2017-08-19T15:31:23.435Z,18.50
2017-08-19T15:33:51.512Z,18.90
2017-08-19T15:36:19.584Z,19.30
2017-08-19T15:38:47.718Z,19.50
2017-08-19T15:41:15.805Z,17.90
2017-08-19T15:43:43.891Z,18.20
2017-08-19T15:46:11.981Z,16.90
2017-08-19T15:48:40.061Z,18.70
2017-08-19T15:51:08.905Z,19.20
2017-08-19T15:53:37.046Z,19.10
2017-08-19T15:56:05.119Z,18.70
2017-08-19T15:58:33.200Z,18.50
2017-08-19T16:01:01.285Z,18.20
2017-08-19T16:03:29.373Z,17.80
2017-08-19T16:05:57.533Z,18.10
2017-08-19T16:08:25.629Z,17.10
2017-08-19T16:10:53.713Z,17.70
2017-08-19T16:13:21.794Z,17.80
2017-08-19T16:15:49.892Z,18.00
2017-08-19T16:18:18.032Z,18.80
2017-08-19T16:20:46.117Z,18.60
2017-08-19T16:23:14.956Z,18.30
2017-08-19T16:25:43.048Z,18.20
2017-08-19T16:28:11.120Z,18.20
2017-08-19T16:30:39.191Z,18.30
2017-08-19T16:33:07.299Z,18.00
2017-08-19T16:35:35.352Z,17.10
2017-08-19T16:38:03.437Z,19.10
2017-08-19T16:40:31.523Z,17.40
2017-08-19T16:43:00.373Z,17.10
2017-08-19T16:45:28.443Z,16.90
2017-08-19T16:47:56.516Z,17.60
2017-08-19T16:50:24.587Z,17.20
2017-08-19T16:52:52.677Z,17.40
2017-08-19T16:55:20.746Z,17.70
2017-08-19T16:57:48.895Z,17.30
2017-08-19T17:00:16.976Z,18.10
2017-08-19T17:02:45.072Z,17.20
2017-08-19T17:05:13.140Z,17.80
2017-08-19T17:07:41.213Z,18.70
2017-08-19T17:10:09.292Z,18.50
2017-08-19T17:12:37.359Z,18.20
2017-08-19T17:15:05.440Z,18.10
2017-08-19T17:17:33.503Z,18.40
2017-08-19T17:20:01.607Z,18.90
2017-08-19T17:22:29.727Z,18.80
2017-08-19T17:24:57.843Z,19.20
2017-08-19T17:27:26.683Z,20.00
2017-08-19T17:29:54.768Z,19.50
2017-08-19T17:32:22.839Z,19.60
2017-08-19T17:34:50.911Z,20.00
2017-08-19T17:37:18.993Z,20.80
2017-08-19T17:39:47.058Z,20.00
2017-08-19T17:42:15.134Z,20.30
2017-08-19T17:44:43.202Z,20.70
2017-08-19T17:47:11.276Z,20.90
2017-08-19T17:49:39.347Z,21.50
2017-08-19T17:52:07.420Z,20.30
2017-08-19T17:54:35.493Z,21.00
2017-08-19T17:57:03.567Z,20.80
2017-08-19T17:59:31.635Z,21.00
2017-08-19T18:01:59.856Z,21.10
2017-08-19T18:04:28.692Z,21.60
2017-08-19T18:06:56.988Z,21.60
2017-08-19T18:09:25.085Z,20.80
2017-08-19T18:11:53.932Z,22.00
2017-08-19T18:14:22.037Z,21.90
2017-08-19T18:16:50.922Z,22.50
2017-08-19T18:19:19.073Z,22.50
2017-08-19T18:21:47.152Z,22.20
2017-08-19T18:24:15.250Z,22.30
2017-08-19T18:26:44.122Z,22.20
2017-08-19T18:29:12.231Z,22.10
2017-08-19T18:31:41.100Z,22.70
2017-08-19T18:34:09.212Z,22.60
2017-08-19T18:36:37.395Z,23.10
2017-08-19T18:39:05.489Z,23.20
2017-08-19T18:41:33.580Z,22.50
2017-08-19T18:44:01.676Z,23.80
2017-08-19T18:46:29.882Z,23.30
2017-08-19T18:48:57.955Z,23.20
2017-08-19T18:51:26.062Z,24.30
2017-08-19T18:53:54.177Z,24.00
2017-08-19T18:56:22.276Z,23.90
2017-08-19T18:58:50.369Z,25.10
2017-08-19T19:01:18.441Z,24.00
2017-08-19T19:03:46.536Z,24.20
2017-08-19T19:06:14.629Z,25.00
2017-08-19T19:08:42.695Z,24.60
2017-08-19T19:11:10.768Z,25.40
2017-08-19T19:13:38.843Z,24.40
2017-08-19T19:16:06.917Z,24.30
2017-08-19T19:18:34.996Z,25.10
2017-08-19T19:21:03.069Z,25.40
2017-08-19T19:23:31.238Z,25.70
2017-08-19T19:26:00.096Z,25.50
2017-08-19T19:28:28.199Z,25.40
2017-08-19T19:30:56.280Z,26.00
2017-08-19T19:33:24.412Z,26.90
2017-08-19T19:35:52.505Z,27.60
2017-08-19T19:38:20.607Z,28.40
2017-08-19T19:40:49.461Z,30.00
2017-08-19T19:43:17.552Z,30.00
2017-08-19T19:45:45.641Z,30.90
2017-08-19T19:48:14.496Z,31.00
2017-08-19T19:50:42.597Z,31.00
2017-08-19T19:53:10.681Z,31.20
2017-08-19T19:55:38.798Z,31.40
2017-08-19T19:58:06.872Z,31.30
2017-08-19T20:00:34.985Z,31.60
2017-08-19T20:03:03.127Z,31.90
2017-08-19T20:05:31.609Z,32.10
2017-08-19T20:07:59.692Z,32.40
2017-08-19T20:10:27.798Z,32.50
2017-08-19T20:12:56.046Z,32.80
2017-08-19T20:15:24.112Z,32.40
2017-08-19T20:17:52.197Z,32.50
2017-08-19T20:20:20.274Z,32.80
2017-08-19T20:22:48.353Z,33.10
2017-08-19T20:25:16.428Z,34.40
2017-08-19T20:27:44.554Z,35.30
2017-08-19T20:30:12.656Z,34.40
2017-08-19T20:32:40.747Z,34.00
2017-08-19T20:35:08.860Z,34.50
2017-08-19T20:37:36.955Z,34.80
2017-08-19T20:40:05.048Z,35.00
2017-08-19T20:42:33.117Z,35.20
2017-08-19T20:45:01.223Z,35.80
2017-08-19T20:47:30.078Z,36.50
2017-08-19T20:49:58.176Z,36.40
2017-08-19T20:52:26.255Z,36.00
2017-08-19T20:54:55.116Z,36.00
2017-08-19T20:57:23.225Z,35.80
2017-08-19T20:59:51.365Z,36.40
2017-08-19T21:02:19.434Z,36.70
2017-08-19T21:04:47.532Z,36.80
2017-08-19T21:07:15.616Z,36.90
2017-08-19T21:09:44.610Z,37.90
2017-08-19T21:12:13.473Z,37.90
2017-08-19T21:14:41.547Z,37.80
2017-08-19T21:17:09.635Z,38.10
2017-08-19T21:19:37.708Z,39.10
2017-08-19T21:22:05.782Z,38.40
2017-08-19T21:24:34.699Z,39.50
2017-08-19T21:27:02.816Z,39.20
2017-08-19T21:29:30.913Z,40.40
2017-08-19T21:31:59.000Z,41.70
2017-08-19T21:34:28.032Z,44.30
2017-08-19T21:36:56.200Z,43.80
2017-08-19T21:39:24.424Z,45.80
2017-08-19T21:41:52.732Z,45.40
2017-08-19T21:44:20.889Z,45.50
2017-08-19T21:46:50.425Z,45.30
2017-08-19T21:49:18.544Z,45.30
2017-08-19T21:51:46.769Z,45.40
2017-08-19T21:54:24.851Z,45.20
2017-08-19T21:56:52.931Z,45.20
2017-08-19T21:59:21.782Z,46.30
2017-08-19T22:01:50.004Z,46.30
2017-08-19T22:04:18.891Z,46.60
2017-08-19T22:06:47.346Z,46.40
2017-08-19T22:09:16.079Z,46.30
2017-08-19T22:11:44.620Z,46.70
2017-08-19T22:14:14.937Z,47.70
2017-08-19T22:16:44.243Z,48.10
2017-08-19T22:19:12.711Z,48.00
2017-08-19T22:21:42.052Z,47.60
2017-08-19T22:24:10.682Z,47.60
2017-08-19T22:26:39.222Z,47.90
2017-08-19T22:29:07.360Z,48.60
2017-08-19T22:31:35.481Z,47.70
2017-08-19T22:34:03.587Z,48.10
2017-08-19T22:36:31.654Z,48.10
2017-08-19T22:38:59.728Z,48.90
2017-08-19T22:41:27.826Z,49.80
2017-08-19T22:43:55.896Z,50.10
2017-08-19T22:46:23.971Z,50.10
2017-08-19T22:48:52.052Z,50.30
2017-08-19T22:51:20.133Z,50.40
2017-08-19T22:53:48.223Z,50.40
2017-08-19T22:56:17.056Z,50.50
2017-08-19T22:58:45.135Z,50.30
2017-08-19T23:01:13.206Z,50.50
2017-08-19T23:03:41.496Z,50.50
2017-08-19T23:06:09.567Z,50.90
2017-08-19T23:08:37.667Z,50.30
2017-08-19T23:11:05.816Z,50.70
2017-08-19T23:13:33.892Z,51.20
2017-08-19T23:16:01.975Z,51.30
2017-08-19T23:18:30.103Z,51.40
2017-08-19T23:20:58.188Z,51.30
2017-08-19T23:23:26.259Z,51.70
2017-08-19T23:25:56.131Z,50.90
2017-08-19T23:28:24.203Z,50.60
2017-08-19T23:30:53.149Z,50.40
2017-08-19T23:33:21.227Z,50.40
2017-08-19T23:35:49.308Z,49.80
2017-08-19T23:38:17.392Z,49.70
2017-08-19T23:40:45.471Z,49.20
2017-08-19T23:43:13.631Z,49.00
2017-08-19T23:45:41.714Z,47.70
2017-08-19T23:48:09.783Z,48.50
2017-08-19T23:50:37.862Z,48.50
2017-08-19T23:53:05.941Z,47.90
2017-08-19T23:55:35.744Z,48.00
2017-08-19T23:58:03.817Z,47.30
